Country
Station

 

Weather  for  Villahermosa  -  Mexico    Mexico

  
34 °C (93 °F)
    
 
 

Current METAR for Villahermosa is :

MMVA 192044Z 11009KT 7SM FEW008 SCT015TCU 34/21 A2996 RMK SLP143 57023 938 8/200 HZY

 

This is a report for Villahermosa - Mexico.
 
The report was made 43 minutes ago, at 20:44 UTC .
The wind was blowing at a speed of 4.6 meters per second (10.4 miles per hour) from east/southeast (110°).
 
The temperature was 34 °C (93 °F), with a dew-point at 21 °C (70 °F).
The temperature felt like 37 °C (99 °F).
 
The atmospheric pressure was 1015 hPa (29.96 inHg).
The relative humidity was 46.8%.
 
There were a few clouds at a height of 244 meters (800 feet) and scattered towering cumulus clouds at a height of 457 meters (1500 feet).
 
The overall visibility was 11.3 kilometers (7.0 miles).
 

 
 
 
 

Country :   A   B   C   D   E   F   G   H   I   J   K   L   M   N   O   P   Q   R   S   T   U   V   W   Y   Z

 

Site Info  |  Disclaimer  |  Credits  |  Privacy
Contact us  |  Add to favorites
© 2013-2018 METARs - All rights reserved